sensor_id;sensor_type;location;lat;lon;timestamp;temperature;humidity
69895;DHT22;57172;52.034;5.090;2022-08-19T00:02:00;20.00;70.80
69895;DHT22;57172;52.034;5.090;2022-08-19T00:04:33;20.00;70.90
69895;DHT22;57172;52.034;5.090;2022-08-19T00:07:04;19.90;71.00
69895;DHT22;57172;52.034;5.090;2022-08-19T00:09:32;19.90;71.00
69895;DHT22;57172;52.034;5.090;2022-08-19T00:12:00;19.90;71.00
69895;DHT22;57172;52.034;5.090;2022-08-19T00:14:28;19.80;71.10
69895;DHT22;57172;52.034;5.090;2022-08-19T00:16:58;19.80;71.10
69895;DHT22;57172;52.034;5.090;2022-08-19T00:19:25;19.80;71.00
69895;DHT22;57172;52.034;5.090;2022-08-19T00:21:52;19.80;71.10
69895;DHT22;57172;52.034;5.090;2022-08-19T00:24:19;19.80;71.10
69895;DHT22;57172;52.034;5.090;2022-08-19T00:26:46;19.80;71.20
69895;DHT22;57172;52.034;5.090;2022-08-19T00:29:15;19.70;71.30
69895;DHT22;57172;52.034;5.090;2022-08-19T00:31:44;19.70;71.30
69895;DHT22;57172;52.034;5.090;2022-08-19T00:34:12;19.70;71.30
69895;DHT22;57172;52.034;5.090;2022-08-19T00:36:41;19.60;71.30
69895;DHT22;57172;52.034;5.090;2022-08-19T00:39:09;19.60;71.30
69895;DHT22;57172;52.034;5.090;2022-08-19T00:41:36;19.60;71.30
69895;DHT22;57172;52.034;5.090;2022-08-19T00:44:11;19.60;71.30
69895;DHT22;57172;52.034;5.090;2022-08-19T00:46:41;19.50;71.40
69895;DHT22;57172;52.034;5.090;2022-08-19T00:49:31;19.50;71.30
69895;DHT22;57172;52.034;5.090;2022-08-19T00:52:11;19.50;71.80
69895;DHT22;57172;52.034;5.090;2022-08-19T00:54:39;19.50;72.20
69895;DHT22;57172;52.034;5.090;2022-08-19T00:57:10;19.50;72.10
69895;DHT22;57172;52.034;5.090;2022-08-19T00:59:40;19.50;72.20
69895;DHT22;57172;52.034;5.090;2022-08-19T01:02:28;19.50;72.30
69895;DHT22;57172;52.034;5.090;2022-08-19T01:04:56;19.50;72.10
69895;DHT22;57172;52.034;5.090;2022-08-19T01:07:23;19.40;72.10
69895;DHT22;57172;52.034;5.090;2022-08-19T01:09:51;19.40;72.10
69895;DHT22;57172;52.034;5.090;2022-08-19T01:12:18;19.40;72.10
69895;DHT22;57172;52.034;5.090;2022-08-19T01:14:46;19.40;72.10
69895;DHT22;57172;52.034;5.090;2022-08-19T01:17:15;19.40;72.10
69895;DHT22;57172;52.034;5.090;2022-08-19T01:19:43;19.30;72.10
69895;DHT22;57172;52.034;5.090;2022-08-19T01:22:31;19.30;72.20
69895;DHT22;57172;52.034;5.090;2022-08-19T01:25:01;19.30;72.40
69895;DHT22;57172;52.034;5.090;2022-08-19T01:27:40;19.30;72.80
69895;DHT22;57172;52.034;5.090;2022-08-19T01:30:13;19.20;72.90
69895;DHT22;57172;52.034;5.090;2022-08-19T01:32:40;19.30;72.80
69895;DHT22;57172;52.034;5.090;2022-08-19T01:35:08;19.20;72.90
69895;DHT22;57172;52.034;5.090;2022-08-19T01:37:52;19.20;72.90
69895;DHT22;57172;52.034;5.090;2022-08-19T01:40:22;19.20;72.90
69895;DHT22;57172;52.034;5.090;2022-08-19T01:42:50;19.20;72.90
69895;DHT22;57172;52.034;5.090;2022-08-19T01:45:18;19.20;73.20
69895;DHT22;57172;52.034;5.090;2022-08-19T01:47:45;19.10;73.60
69895;DHT22;57172;52.034;5.090;2022-08-19T01:50:27;19.20;73.80
69895;DHT22;57172;52.034;5.090;2022-08-19T01:52:54;19.10;73.90
69895;DHT22;57172;52.034;5.090;2022-08-19T01:55:35;19.10;73.90
69895;DHT22;57172;52.034;5.090;2022-08-19T01:58:14;19.10;73.70
69895;DHT22;57172;52.034;5.090;2022-08-19T02:00:44;19.10;73.60
69895;DHT22;57172;52.034;5.090;2022-08-19T02:03:12;19.10;73.40
69895;DHT22;57172;52.034;5.090;2022-08-19T02:05:40;19.10;73.30
69895;DHT22;57172;52.034;5.090;2022-08-19T02:08:08;19.00;73.30
69895;DHT22;57172;52.034;5.090;2022-08-19T02:10:39;19.00;73.20
69895;DHT22;57172;52.034;5.090;2022-08-19T02:13:06;19.00;73.30
69895;DHT22;57172;52.034;5.090;2022-08-19T02:15:33;19.00;73.20
69895;DHT22;57172;52.034;5.090;2022-08-19T02:18:00;18.90;73.30
69895;DHT22;57172;52.034;5.090;2022-08-19T02:20:27;18.80;73.30
69895;DHT22;57172;52.034;5.090;2022-08-19T02:22:53;18.80;73.50
69895;DHT22;57172;52.034;5.090;2022-08-19T02:25:20;18.80;73.80
69895;DHT22;57172;52.034;5.090;2022-08-19T02:27:47;18.80;73.90
69895;DHT22;57172;52.034;5.090;2022-08-19T02:30:17;18.80;73.90
69895;DHT22;57172;52.034;5.090;2022-08-19T02:32:45;18.80;74.10
69895;DHT22;57172;52.034;5.090;2022-08-19T02:35:13;18.80;74.70
69895;DHT22;57172;52.034;5.090;2022-08-19T02:37:41;18.80;74.90
69895;DHT22;57172;52.034;5.090;2022-08-19T02:40:28;18.90;75.20
69895;DHT22;57172;52.034;5.090;2022-08-19T02:42:55;18.90;74.90
69895;DHT22;57172;52.034;5.090;2022-08-19T02:45:22;18.90;74.80
69895;DHT22;57172;52.034;5.090;2022-08-19T02:47:49;18.90;74.90
69895;DHT22;57172;52.034;5.090;2022-08-19T02:50:16;18.90;74.90
69895;DHT22;57172;52.034;5.090;2022-08-19T02:52:44;18.80;75.20
69895;DHT22;57172;52.034;5.090;2022-08-19T02:55:11;18.80;75.30
69895;DHT22;57172;52.034;5.090;2022-08-19T02:57:38;18.80;75.30
69895;DHT22;57172;52.034;5.090;2022-08-19T03:00:07;18.80;75.10
69895;DHT22;57172;52.034;5.090;2022-08-19T03:02:35;18.80;74.90
69895;DHT22;57172;52.034;5.090;2022-08-19T03:05:04;18.80;74.90
69895;DHT22;57172;52.034;5.090;2022-08-19T03:07:31;18.80;75.30
69895;DHT22;57172;52.034;5.090;2022-08-19T03:09:58;18.80;75.30
69895;DHT22;57172;52.034;5.090;2022-08-19T03:12:25;18.80;75.40
69895;DHT22;57172;52.034;5.090;2022-08-19T03:14:52;18.80;75.40
69895;DHT22;57172;52.034;5.090;2022-08-19T03:17:20;18.70;75.40
69895;DHT22;57172;52.034;5.090;2022-08-19T03:19:47;18.70;75.30
69895;DHT22;57172;52.034;5.090;2022-08-19T03:22:13;18.70;75.20
69895;DHT22;57172;52.034;5.090;2022-08-19T03:24:40;18.60;75.30
69895;DHT22;57172;52.034;5.090;2022-08-19T03:27:07;18.60;75.60
69895;DHT22;57172;52.034;5.090;2022-08-19T03:29:37;18.60;75.60
69895;DHT22;57172;52.034;5.090;2022-08-19T03:32:10;18.60;75.50
69895;DHT22;57172;52.034;5.090;2022-08-19T03:34:57;18.50;75.60
69895;DHT22;57172;52.034;5.090;2022-08-19T03:37:24;18.50;75.90
69895;DHT22;57172;52.034;5.090;2022-08-19T03:39:51;18.50;76.50
69895;DHT22;57172;52.034;5.090;2022-08-19T03:42:18;18.50;76.50
69895;DHT22;57172;52.034;5.090;2022-08-19T03:44:59;18.50;76.40
69895;DHT22;57172;52.034;5.090;2022-08-19T03:47:25;18.50;76.50
69895;DHT22;57172;52.034;5.090;2022-08-19T03:49:52;18.50;76.80
69895;DHT22;57172;52.034;5.090;2022-08-19T03:52:19;18.50;76.70
69895;DHT22;57172;52.034;5.090;2022-08-19T03:54:46;18.40;76.60
69895;DHT22;57172;52.034;5.090;2022-08-19T03:57:13;18.40;76.70
69895;DHT22;57172;52.034;5.090;2022-08-19T03:59:39;18.40;77.30
69895;DHT22;57172;52.034;5.090;2022-08-19T04:02:09;18.40;77.20
69895;DHT22;57172;52.034;5.090;2022-08-19T04:04:39;18.40;76.90
69895;DHT22;57172;52.034;5.090;2022-08-19T04:07:06;18.40;76.80
69895;DHT22;57172;52.034;5.090;2022-08-19T04:09:34;18.40;77.00
69895;DHT22;57172;52.034;5.090;2022-08-19T04:12:01;18.40;77.50
69895;DHT22;57172;52.034;5.090;2022-08-19T04:14:29;18.40;77.70
69895;DHT22;57172;52.034;5.090;2022-08-19T04:17:00;18.40;77.60
69895;DHT22;57172;52.034;5.090;2022-08-19T04:19:29;18.40;77.80
69895;DHT22;57172;52.034;5.090;2022-08-19T04:21:56;18.40;77.80
69895;DHT22;57172;52.034;5.090;2022-08-19T04:24:24;18.40;77.80
69895;DHT22;57172;52.034;5.090;2022-08-19T04:26:51;18.40;77.60
69895;DHT22;57172;52.034;5.090;2022-08-19T04:29:20;18.40;77.60
69895;DHT22;57172;52.034;5.090;2022-08-19T04:31:48;18.40;77.60
69895;DHT22;57172;52.034;5.090;2022-08-19T04:34:18;18.30;77.90
69895;DHT22;57172;52.034;5.090;2022-08-19T04:36:49;18.30;78.10
69895;DHT22;57172;52.034;5.090;2022-08-19T04:39:22;18.30;78.20
69895;DHT22;57172;52.034;5.090;2022-08-19T04:41:49;18.30;78.00
69895;DHT22;57172;52.034;5.090;2022-08-19T04:44:35;18.30;77.90
69895;DHT22;57172;52.034;5.090;2022-08-19T04:47:12;18.30;78.20
69895;DHT22;57172;52.034;5.090;2022-08-19T04:49:38;18.30;78.40
69895;DHT22;57172;52.034;5.090;2022-08-19T04:52:05;18.30;78.50
69895;DHT22;57172;52.034;5.090;2022-08-19T04:54:32;18.30;78.80
69895;DHT22;57172;52.034;5.090;2022-08-19T04:57:05;18.30;78.90
69895;DHT22;57172;52.034;5.090;2022-08-19T04:59:34;18.40;78.90
69895;DHT22;57172;52.034;5.090;2022-08-19T05:02:01;18.40;79.10
69895;DHT22;57172;52.034;5.090;2022-08-19T05:04:28;18.40;79.20
69895;DHT22;57172;52.034;5.090;2022-08-19T05:06:58;18.40;79.30
69895;DHT22;57172;52.034;5.090;2022-08-19T05:09:27;18.40;79.40
69895;DHT22;57172;52.034;5.090;2022-08-19T05:12:14;18.40;79.50
69895;DHT22;57172;52.034;5.090;2022-08-19T05:14:42;18.40;80.00
69895;DHT22;57172;52.034;5.090;2022-08-19T05:17:09;18.40;80.00
69895;DHT22;57172;52.034;5.090;2022-08-19T05:19:56;18.40;80.00
69895;DHT22;57172;52.034;5.090;2022-08-19T05:22:43;18.50;80.30
69895;DHT22;57172;52.034;5.090;2022-08-19T05:25:13;18.50;80.30
69895;DHT22;57172;52.034;5.090;2022-08-19T05:27:41;18.50;80.20
69895;DHT22;57172;52.034;5.090;2022-08-19T05:30:10;18.60;80.20
69895;DHT22;57172;52.034;5.090;2022-08-19T05:32:38;18.60;80.30
69895;DHT22;57172;52.034;5.090;2022-08-19T05:35:06;18.60;80.40
69895;DHT22;57172;52.034;5.090;2022-08-19T05:37:33;18.60;80.50
69895;DHT22;57172;52.034;5.090;2022-08-19T05:39:59;18.60;80.80
69895;DHT22;57172;52.034;5.090;2022-08-19T05:42:26;18.70;81.00
69895;DHT22;57172;52.034;5.090;2022-08-19T05:44:53;18.70;81.00
69895;DHT22;57172;52.034;5.090;2022-08-19T05:47:21;18.70;80.90
69895;DHT22;57172;52.034;5.090;2022-08-19T05:49:48;18.70;80.90
69895;DHT22;57172;52.034;5.090;2022-08-19T05:52:17;18.80;80.80
69895;DHT22;57172;52.034;5.090;2022-08-19T05:54:45;18.90;80.80
69895;DHT22;57172;52.034;5.090;2022-08-19T05:57:18;18.90;80.70
69895;DHT22;57172;52.034;5.090;2022-08-19T05:59:45;19.10;80.60
69895;DHT22;57172;52.034;5.090;2022-08-19T06:02:17;19.10;80.40
69895;DHT22;57172;52.034;5.090;2022-08-19T06:04:44;19.20;80.20
69895;DHT22;57172;52.034;5.090;2022-08-19T06:07:11;19.20;79.90
69895;DHT22;57172;52.034;5.090;2022-08-19T06:09:39;19.20;79.90
69895;DHT22;57172;52.034;5.090;2022-08-19T06:12:06;19.20;79.80
69895;DHT22;57172;52.034;5.090;2022-08-19T06:14:34;19.20;79.80
69895;DHT22;57172;52.034;5.090;2022-08-19T06:17:07;19.30;79.80
69895;DHT22;57172;52.034;5.090;2022-08-19T06:19:35;19.30;79.70
69895;DHT22;57172;52.034;5.090;2022-08-19T06:22:07;19.30;79.80
69895;DHT22;57172;52.034;5.090;2022-08-19T06:24:34;19.30;79.70
69895;DHT22;57172;52.034;5.090;2022-08-19T06:27:03;19.30;79.80
69895;DHT22;57172;52.034;5.090;2022-08-19T06:29:32;19.40;79.70
69895;DHT22;57172;52.034;5.090;2022-08-19T06:32:01;19.30;79.50
69895;DHT22;57172;52.034;5.090;2022-08-19T06:34:31;19.40;79.50
69895;DHT22;57172;52.034;5.090;2022-08-19T06:36:59;19.40;79.50
69895;DHT22;57172;52.034;5.090;2022-08-19T06:39:36;19.40;79.40
69895;DHT22;57172;52.034;5.090;2022-08-19T06:42:06;19.40;79.40
69895;DHT22;57172;52.034;5.090;2022-08-19T06:44:38;19.40;79.50
69895;DHT22;57172;52.034;5.090;2022-08-19T06:47:10;19.50;79.50
69895;DHT22;57172;52.034;5.090;2022-08-19T06:49:41;19.50;79.50
69895;DHT22;57172;52.034;5.090;2022-08-19T06:52:09;19.60;79.60
69895;DHT22;57172;52.034;5.090;2022-08-19T06:54:40;19.70;79.50
69895;DHT22;57172;52.034;5.090;2022-08-19T06:57:23;19.80;79.40
69895;DHT22;57172;52.034;5.090;2022-08-19T06:59:51;19.90;79.00
69895;DHT22;57172;52.034;5.090;2022-08-19T07:02:18;20.00;79.00
69895;DHT22;57172;52.034;5.090;2022-08-19T07:04:45;20.10;78.60
69895;DHT22;57172;52.034;5.090;2022-08-19T07:07:14;20.10;78.60
69895;DHT22;57172;52.034;5.090;2022-08-19T07:09:48;20.20;78.30
69895;DHT22;57172;52.034;5.090;2022-08-19T07:12:27;20.30;78.20
69895;DHT22;57172;52.034;5.090;2022-08-19T07:14:56;20.40;77.70
69895;DHT22;57172;52.034;5.090;2022-08-19T07:17:23;20.40;77.60
69895;DHT22;57172;52.034;5.090;2022-08-19T07:19:51;20.50;77.30
69895;DHT22;57172;52.034;5.090;2022-08-19T07:22:20;20.50;77.10
69895;DHT22;57172;52.034;5.090;2022-08-19T07:24:51;20.50;77.30
69895;DHT22;57172;52.034;5.090;2022-08-19T07:27:19;20.60;77.10
69895;DHT22;57172;52.034;5.090;2022-08-19T07:29:50;20.60;77.00
69895;DHT22;57172;52.034;5.090;2022-08-19T07:32:23;20.80;77.30
69895;DHT22;57172;52.034;5.090;2022-08-19T07:34:54;20.90;76.90
69895;DHT22;57172;52.034;5.090;2022-08-19T07:37:25;21.00;76.60
69895;DHT22;57172;52.034;5.090;2022-08-19T07:39:59;21.20;76.30
69895;DHT22;57172;52.034;5.090;2022-08-19T07:42:26;21.30;76.10
69895;DHT22;57172;52.034;5.090;2022-08-19T07:44:54;21.40;75.30
69895;DHT22;57172;52.034;5.090;2022-08-19T07:47:21;21.40;74.70
69895;DHT22;57172;52.034;5.090;2022-08-19T07:50:10;21.40;74.20
69895;DHT22;57172;52.034;5.090;2022-08-19T07:52:38;21.40;74.10
69895;DHT22;57172;52.034;5.090;2022-08-19T07:55:08;21.40;74.00
69895;DHT22;57172;52.034;5.090;2022-08-19T07:57:56;21.50;73.80
69895;DHT22;57172;52.034;5.090;2022-08-19T08:00:23;21.50;73.60
69895;DHT22;57172;52.034;5.090;2022-08-19T08:02:51;21.50;73.50
69895;DHT22;57172;52.034;5.090;2022-08-19T08:05:23;21.50;73.40
69895;DHT22;57172;52.034;5.090;2022-08-19T08:08:13;21.40;73.40
69895;DHT22;57172;52.034;5.090;2022-08-19T08:11:16;21.40;73.90
69895;DHT22;57172;52.034;5.090;2022-08-19T08:13:46;21.40;74.30
69895;DHT22;57172;52.034;5.090;2022-08-19T08:16:30;21.50;74.40
69895;DHT22;57172;52.034;5.090;2022-08-19T08:18:58;21.60;74.10
69895;DHT22;57172;52.034;5.090;2022-08-19T08:21:26;21.70;73.90
69895;DHT22;57172;52.034;5.090;2022-08-19T08:23:53;21.70;73.60
69895;DHT22;57172;52.034;5.090;2022-08-19T08:26:22;21.80;73.70
69895;DHT22;57172;52.034;5.090;2022-08-19T08:28:49;22.00;74.10
69895;DHT22;57172;52.034;5.090;2022-08-19T08:31:17;22.20;74.60
69895;DHT22;57172;52.034;5.090;2022-08-19T08:33:46;22.50;74.60
69895;DHT22;57172;52.034;5.090;2022-08-19T08:36:13;22.80;73.00
69895;DHT22;57172;52.034;5.090;2022-08-19T08:38:42;22.90;71.20
69895;DHT22;57172;52.034;5.090;2022-08-19T08:41:22;22.90;70.60
69895;DHT22;57172;52.034;5.090;2022-08-19T08:43:51;23.00;71.30
69895;DHT22;57172;52.034;5.090;2022-08-19T08:54:41;23.20;68.50
69895;DHT22;57172;52.034;5.090;2022-08-19T09:00:24;23.20;68.50
69895;DHT22;57172;52.034;5.090;2022-08-19T09:02:54;23.20;68.40
69895;DHT22;57172;52.034;5.090;2022-08-19T09:05:23;23.20;68.40
69895;DHT22;57172;52.034;5.090;2022-08-19T09:08:26;23.10;68.60
69895;DHT22;57172;52.034;5.090;2022-08-19T09:10:55;23.20;69.40
69895;DHT22;57172;52.034;5.090;2022-08-19T09:16:16;24.20;68.90
69895;DHT22;57172;52.034;5.090;2022-08-19T09:18:52;24.40;67.10
69895;DHT22;57172;52.034;5.090;2022-08-19T09:21:23;24.40;66.40
69895;DHT22;57172;52.034;5.090;2022-08-19T09:23:59;24.40;65.50
69895;DHT22;57172;52.034;5.090;2022-08-19T09:26:29;24.30;65.30
69895;DHT22;57172;52.034;5.090;2022-08-19T09:29:17;24.20;65.50
69895;DHT22;57172;52.034;5.090;2022-08-19T09:31:44;24.10;66.00
69895;DHT22;57172;52.034;5.090;2022-08-19T09:34:11;24.10;66.30
69895;DHT22;57172;52.034;5.090;2022-08-19T09:36:48;24.10;66.90
69895;DHT22;57172;52.034;5.090;2022-08-19T09:39:20;24.30;66.70
69895;DHT22;57172;52.034;5.090;2022-08-19T09:41:47;24.40;66.10
69895;DHT22;57172;52.034;5.090;2022-08-19T09:44:17;24.40;65.80
69895;DHT22;57172;52.034;5.090;2022-08-19T09:46:45;24.30;65.50
69895;DHT22;57172;52.034;5.090;2022-08-19T09:49:16;24.30;66.10
69895;DHT22;57172;52.034;5.090;2022-08-19T09:51:45;24.30;65.80
69895;DHT22;57172;52.034;5.090;2022-08-19T09:54:17;24.10;65.70
69895;DHT22;57172;52.034;5.090;2022-08-19T09:56:49;24.00;65.90
69895;DHT22;57172;52.034;5.090;2022-08-19T09:59:16;23.90;66.20
69895;DHT22;57172;52.034;5.090;2022-08-19T10:01:43;23.70;66.80
69895;DHT22;57172;52.034;5.090;2022-08-19T10:04:11;23.70;67.50
69895;DHT22;57172;52.034;5.090;2022-08-19T10:06:46;23.80;68.30
69895;DHT22;57172;52.034;5.090;2022-08-19T10:09:19;24.10;69.10
69895;DHT22;57172;52.034;5.090;2022-08-19T10:12:01;24.70;69.60
69895;DHT22;57172;52.034;5.090;2022-08-19T10:14:28;25.30;67.80
69895;DHT22;57172;52.034;5.090;2022-08-19T10:16:55;25.60;66.40
69895;DHT22;57172;52.034;5.090;2022-08-19T10:19:24;25.90;65.10
69895;DHT22;57172;52.034;5.090;2022-08-19T10:21:53;26.00;64.60
69895;DHT22;57172;52.034;5.090;2022-08-19T10:24:26;26.50;65.10
69895;DHT22;57172;52.034;5.090;2022-08-19T10:26:54;27.30;61.60
69895;DHT22;57172;52.034;5.090;2022-08-19T10:29:26;27.70;60.00
69895;DHT22;57172;52.034;5.090;2022-08-19T10:32:07;28.10;60.60
69895;DHT22;57172;52.034;5.090;2022-08-19T10:34:37;28.60;58.30
69895;DHT22;57172;52.034;5.090;2022-08-19T10:37:15;28.90;57.60
69895;DHT22;57172;52.034;5.090;2022-08-19T10:39:54;29.60;57.50
69895;DHT22;57172;52.034;5.090;2022-08-19T10:42:21;30.60;54.70
69895;DHT22;57172;52.034;5.090;2022-08-19T10:44:48;31.00;53.20
69895;DHT22;57172;52.034;5.090;2022-08-19T10:47:18;31.50;51.60
69895;DHT22;57172;52.034;5.090;2022-08-19T10:49:52;32.00;50.40
69895;DHT22;57172;52.034;5.090;2022-08-19T10:52:47;32.50;49.30
69895;DHT22;57172;52.034;5.090;2022-08-19T10:55:21;33.20;48.30
69895;DHT22;57172;52.034;5.090;2022-08-19T10:58:17;33.70;45.60
69895;DHT22;57172;52.034;5.090;2022-08-19T11:00:52;32.80;45.50
69895;DHT22;57172;52.034;5.090;2022-08-19T11:03:20;31.80;46.80
69895;DHT22;57172;52.034;5.090;2022-08-19T11:05:56;30.90;48.20
69895;DHT22;57172;52.034;5.090;2022-08-19T11:08:23;30.10;49.40
69895;DHT22;57172;52.034;5.090;2022-08-19T11:10:52;29.60;51.00
69895;DHT22;57172;52.034;5.090;2022-08-19T11:13:22;29.20;51.60
69895;DHT22;57172;52.034;5.090;2022-08-19T11:15:57;28.90;52.10
69895;DHT22;57172;52.034;5.090;2022-08-19T11:18:27;28.70;53.00
69895;DHT22;57172;52.034;5.090;2022-08-19T11:20:54;28.50;53.20
69895;DHT22;57172;52.034;5.090;2022-08-19T11:23:21;28.30;53.50
69895;DHT22;57172;52.034;5.090;2022-08-19T11:25:49;28.20;53.90
69895;DHT22;57172;52.034;5.090;2022-08-19T11:28:20;27.90;54.20
69895;DHT22;57172;52.034;5.090;2022-08-19T11:30:49;27.60;54.90
69895;DHT22;57172;52.034;5.090;2022-08-19T11:33:18;27.40;55.50
69895;DHT22;57172;52.034;5.090;2022-08-19T11:35:45;27.20;56.00
69895;DHT22;57172;52.034;5.090;2022-08-19T11:38:12;27.00;56.70
69895;DHT22;57172;52.034;5.090;2022-08-19T11:40:41;26.80;57.20
69895;DHT22;57172;52.034;5.090;2022-08-19T11:43:08;26.60;57.70
69895;DHT22;57172;52.034;5.090;2022-08-19T11:45:36;26.40;58.40
69895;DHT22;57172;52.034;5.090;2022-08-19T11:48:03;26.30;59.10
69895;DHT22;57172;52.034;5.090;2022-08-19T11:50:30;26.30;59.70
69895;DHT22;57172;52.034;5.090;2022-08-19T11:52:57;26.40;59.60
69895;DHT22;57172;52.034;5.090;2022-08-19T11:55:23;26.40;59.60
69895;DHT22;57172;52.034;5.090;2022-08-19T11:57:50;26.40;59.20
69895;DHT22;57172;52.034;5.090;2022-08-19T12:00:17;26.40;59.30
69895;DHT22;57172;52.034;5.090;2022-08-19T12:02:45;26.50;59.30
69895;DHT22;57172;52.034;5.090;2022-08-19T12:05:11;26.60;58.70
69895;DHT22;57172;52.034;5.090;2022-08-19T12:07:39;26.60;58.20
69895;DHT22;57172;52.034;5.090;2022-08-19T12:10:08;26.70;58.00
69895;DHT22;57172;52.034;5.090;2022-08-19T12:12:36;26.80;57.80
69895;DHT22;57172;52.034;5.090;2022-08-19T12:15:07;27.00;57.80
69895;DHT22;57172;52.034;5.090;2022-08-19T12:17:34;27.20;57.10
69895;DHT22;57172;52.034;5.090;2022-08-19T12:20:01;27.30;57.20
69895;DHT22;57172;52.034;5.090;2022-08-19T12:22:28;27.70;57.40
69895;DHT22;57172;52.034;5.090;2022-08-19T12:24:55;28.00;55.70
69895;DHT22;57172;52.034;5.090;2022-08-19T12:27:22;28.20;54.30
69895;DHT22;57172;52.034;5.090;2022-08-19T12:30:07;28.20;53.70
69895;DHT22;57172;52.034;5.090;2022-08-19T12:32:36;28.20;54.30
69895;DHT22;57172;52.034;5.090;2022-08-19T12:35:03;28.30;53.50
69895;DHT22;57172;52.034;5.090;2022-08-19T12:37:30;28.30;53.50
69895;DHT22;57172;52.034;5.090;2022-08-19T12:39:58;28.40;53.50
69895;DHT22;57172;52.034;5.090;2022-08-19T12:42:26;28.30;53.40
69895;DHT22;57172;52.034;5.090;2022-08-19T12:44:53;28.00;53.80
69895;DHT22;57172;52.034;5.090;2022-08-19T12:47:19;27.70;54.50
69895;DHT22;57172;52.034;5.090;2022-08-19T12:49:54;27.40;55.30
69895;DHT22;57172;52.034;5.090;2022-08-19T12:52:26;27.10;56.10
69895;DHT22;57172;52.034;5.090;2022-08-19T12:54:55;26.80;56.70
69895;DHT22;57172;52.034;5.090;2022-08-19T12:57:24;26.50;58.70
69895;DHT22;57172;52.034;5.090;2022-08-19T13:00:12;26.00;59.90
69895;DHT22;57172;52.034;5.090;2022-08-19T13:02:42;25.60;61.40
69895;DHT22;57172;52.034;5.090;2022-08-19T13:05:14;25.30;62.70
69895;DHT22;57172;52.034;5.090;2022-08-19T13:07:42;25.10;63.40
69895;DHT22;57172;52.034;5.090;2022-08-19T13:10:14;25.00;63.90
69895;DHT22;57172;52.034;5.090;2022-08-19T13:12:47;24.80;64.70
69895;DHT22;57172;52.034;5.090;2022-08-19T13:15:15;24.70;64.60
69895;DHT22;57172;52.034;5.090;2022-08-19T13:17:51;24.60;65.00
69895;DHT22;57172;52.034;5.090;2022-08-19T13:20:20;24.60;65.50
69895;DHT22;57172;52.034;5.090;2022-08-19T13:22:48;24.60;65.50
69895;DHT22;57172;52.034;5.090;2022-08-19T13:25:16;24.60;65.80
69895;DHT22;57172;52.034;5.090;2022-08-19T13:27:44;24.60;65.70
69895;DHT22;57172;52.034;5.090;2022-08-19T13:30:12;24.60;66.20
69895;DHT22;57172;52.034;5.090;2022-08-19T13:32:58;24.50;66.50
69895;DHT22;57172;52.034;5.090;2022-08-19T13:35:39;24.30;66.80
69895;DHT22;57172;52.034;5.090;2022-08-19T13:38:07;24.20;67.40
69895;DHT22;57172;52.034;5.090;2022-08-19T13:40:38;24.20;67.60
69895;DHT22;57172;52.034;5.090;2022-08-19T13:43:07;24.10;67.70
69895;DHT22;57172;52.034;5.090;2022-08-19T13:45:51;24.00;67.90
69895;DHT22;57172;52.034;5.090;2022-08-19T13:48:20;23.90;68.50
69895;DHT22;57172;52.034;5.090;2022-08-19T13:50:47;23.90;68.70
69895;DHT22;57172;52.034;5.090;2022-08-19T13:53:16;23.80;68.80
69895;DHT22;57172;52.034;5.090;2022-08-19T13:55:43;23.70;69.20
69895;DHT22;57172;52.034;5.090;2022-08-19T13:58:11;23.60;70.10
69895;DHT22;57172;52.034;5.090;2022-08-19T14:00:45;23.60;70.20
69895;DHT22;57172;52.034;5.090;2022-08-19T14:03:12;23.60;70.40
69895;DHT22;57172;52.034;5.090;2022-08-19T14:05:39;23.50;69.90
69895;DHT22;57172;52.034;5.090;2022-08-19T14:08:06;23.40;70.30
69895;DHT22;57172;52.034;5.090;2022-08-19T14:10:33;23.30;70.60
69895;DHT22;57172;52.034;5.090;2022-08-19T14:13:02;23.40;71.10
69895;DHT22;57172;52.034;5.090;2022-08-19T14:15:29;23.50;71.20
69895;DHT22;57172;52.034;5.090;2022-08-19T14:17:56;23.70;71.40
69895;DHT22;57172;52.034;5.090;2022-08-19T14:20:23;23.90;70.90
69895;DHT22;57172;52.034;5.090;2022-08-19T14:22:52;24.20;70.70
69895;DHT22;57172;52.034;5.090;2022-08-19T14:25:25;24.40;69.30
69895;DHT22;57172;52.034;5.090;2022-08-19T14:27:53;24.60;68.70
69895;DHT22;57172;52.034;5.090;2022-08-19T14:30:30;24.90;68.10
69895;DHT22;57172;52.034;5.090;2022-08-19T14:32:59;25.00;67.80
69895;DHT22;57172;52.034;5.090;2022-08-19T14:35:28;25.20;66.10
69895;DHT22;57172;52.034;5.090;2022-08-19T14:37:56;25.20;65.50
69895;DHT22;57172;52.034;5.090;2022-08-19T14:40:26;25.30;65.00
69895;DHT22;57172;52.034;5.090;2022-08-19T14:42:55;25.30;65.10
69895;DHT22;57172;52.034;5.090;2022-08-19T14:45:27;25.40;65.10
69895;DHT22;57172;52.034;5.090;2022-08-19T14:47:54;25.30;65.20
69895;DHT22;57172;52.034;5.090;2022-08-19T14:50:22;25.30;65.10
69895;DHT22;57172;52.034;5.090;2022-08-19T14:52:49;25.30;64.90
69895;DHT22;57172;52.034;5.090;2022-08-19T14:55:18;25.40;65.10
69895;DHT22;57172;52.034;5.090;2022-08-19T14:57:45;25.40;64.70
69895;DHT22;57172;52.034;5.090;2022-08-19T15:00:13;25.40;64.80
69895;DHT22;57172;52.034;5.090;2022-08-19T15:02:41;25.40;65.70
69895;DHT22;57172;52.034;5.090;2022-08-19T15:05:08;25.70;65.60
69895;DHT22;57172;52.034;5.090;2022-08-19T15:07:36;26.00;64.70
69895;DHT22;57172;52.034;5.090;2022-08-19T15:10:04;26.20;64.10
69895;DHT22;57172;52.034;5.090;2022-08-19T15:12:37;26.30;63.80
69895;DHT22;57172;52.034;5.090;2022-08-19T15:15:09;26.30;63.40
69895;DHT22;57172;52.034;5.090;2022-08-19T15:17:40;26.30;63.60
69895;DHT22;57172;52.034;5.090;2022-08-19T15:20:17;26.30;63.50
69895;DHT22;57172;52.034;5.090;2022-08-19T15:22:45;26.20;63.50
69895;DHT22;57172;52.034;5.090;2022-08-19T15:25:14;26.10;63.70
69895;DHT22;57172;52.034;5.090;2022-08-19T15:27:41;26.10;63.50
69895;DHT22;57172;52.034;5.090;2022-08-19T15:30:11;26.00;63.50
69895;DHT22;57172;52.034;5.090;2022-08-19T15:32:38;25.90;64.10
69895;DHT22;57172;52.034;5.090;2022-08-19T15:35:06;26.00;65.50
69895;DHT22;57172;52.034;5.090;2022-08-19T15:37:33;26.50;64.90
69895;DHT22;57172;52.034;5.090;2022-08-19T15:40:04;26.90;63.30
69895;DHT22;57172;52.034;5.090;2022-08-19T15:42:32;27.10;61.20
69895;DHT22;57172;52.034;5.090;2022-08-19T15:44:59;27.00;60.40
69895;DHT22;57172;52.034;5.090;2022-08-19T15:47:28;26.90;60.10
69895;DHT22;57172;52.034;5.090;2022-08-19T15:50:14;26.80;60.00
69895;DHT22;57172;52.034;5.090;2022-08-19T15:52:49;26.90;60.10
69895;DHT22;57172;52.034;5.090;2022-08-19T15:55:23;27.00;60.50
69895;DHT22;57172;52.034;5.090;2022-08-19T16:01:03;27.30;59.50
69895;DHT22;57172;52.034;5.090;2022-08-19T16:03:52;27.10;59.20
69895;DHT22;57172;52.034;5.090;2022-08-19T16:06:46;27.00;59.50
69895;DHT22;57172;52.034;5.090;2022-08-19T16:09:15;26.90;59.90